sensor_id;sensor_type;location;lat;lon;timestamp;temperature;humidity
67641;SHT31;54434;50.096;20.082;2023-04-12T00:02:29;7.31;81.59
67641;SHT31;54434;50.096;20.082;2023-04-12T00:05:07;7.30;81.67
67641;SHT31;54434;50.096;20.082;2023-04-12T00:07:44;7.30;81.80
67641;SHT31;54434;50.096;20.082;2023-04-12T00:10:25;7.31;81.84
67641;SHT31;54434;50.096;20.082;2023-04-12T00:13:02;7.28;81.97
67641;SHT31;54434;50.096;20.082;2023-04-12T00:15:39;7.29;81.99
67641;SHT31;54434;50.096;20.082;2023-04-12T00:18:15;7.30;81.90
67641;SHT31;54434;50.096;20.082;2023-04-12T00:20:52;7.30;81.91
67641;SHT31;54434;50.096;20.082;2023-04-12T00:23:29;7.30;81.90
67641;SHT31;54434;50.096;20.082;2023-04-12T00:26:08;7.31;81.90
67641;SHT31;54434;50.096;20.082;2023-04-12T00:28:46;7.30;81.89
67641;SHT31;54434;50.096;20.082;2023-04-12T00:31:23;7.28;81.80
67641;SHT31;54434;50.096;20.082;2023-04-12T00:34:00;7.26;81.76
67641;SHT31;54434;50.096;20.082;2023-04-12T00:36:36;7.26;81.65
67641;SHT31;54434;50.096;20.082;2023-04-12T00:39:13;7.24;81.67
67641;SHT31;54434;50.096;20.082;2023-04-12T00:41:49;7.23;81.60
67641;SHT31;54434;50.096;20.082;2023-04-12T00:44:27;7.23;81.59
67641;SHT31;54434;50.096;20.082;2023-04-12T00:47:04;7.21;81.58
67641;SHT31;54434;50.096;20.082;2023-04-12T00:49:41;7.19;81.53
67641;SHT31;54434;50.096;20.082;2023-04-12T00:52:18;7.18;81.51
67641;SHT31;54434;50.096;20.082;2023-04-12T00:54:54;7.17;81.50
67641;SHT31;54434;50.096;20.082;2023-04-12T00:57:34;7.17;81.40
67641;SHT31;54434;50.096;20.082;2023-04-12T01:00:13;7.14;81.40
67641;SHT31;54434;50.096;20.082;2023-04-12T01:02:51;7.09;81.46
67641;SHT31;54434;50.096;20.082;2023-04-12T01:05:30;7.09;81.40
67641;SHT31;54434;50.096;20.082;2023-04-12T01:08:23;7.07;81.41
67641;SHT31;54434;50.096;20.082;2023-04-12T01:11:19;7.05;81.54
67641;SHT31;54434;50.096;20.082;2023-04-12T01:14:10;7.02;81.70
67641;SHT31;54434;50.096;20.082;2023-04-12T01:17:07;6.98;81.80
67641;SHT31;54434;50.096;20.082;2023-04-12T01:19:57;6.95;81.89
67641;SHT31;54434;50.096;20.082;2023-04-12T01:22:56;6.93;82.10
67641;SHT31;54434;50.096;20.082;2023-04-12T01:25:58;6.89;82.24
67641;SHT31;54434;50.096;20.082;2023-04-12T01:28:56;6.86;82.48
67641;SHT31;54434;50.096;20.082;2023-04-12T01:31:44;6.85;82.59
67641;SHT31;54434;50.096;20.082;2023-04-12T01:34:31;6.85;82.71
67641;SHT31;54434;50.096;20.082;2023-04-12T01:37:10;6.85;82.80
67641;SHT31;54434;50.096;20.082;2023-04-12T01:39:50;6.82;82.87
67641;SHT31;54434;50.096;20.082;2023-04-12T01:42:28;6.83;82.95
67641;SHT31;54434;50.096;20.082;2023-04-12T01:45:05;6.82;83.05
67641;SHT31;54434;50.096;20.082;2023-04-12T01:47:43;6.82;83.10
67641;SHT31;54434;50.096;20.082;2023-04-12T01:50:22;6.82;83.18
67641;SHT31;54434;50.096;20.082;2023-04-12T01:53:13;6.81;83.22
67641;SHT31;54434;50.096;20.082;2023-04-12T01:56:02;6.79;83.28
67641;SHT31;54434;50.096;20.082;2023-04-12T01:58:42;6.79;83.28
67641;SHT31;54434;50.096;20.082;2023-04-12T02:01:22;6.81;83.21
67641;SHT31;54434;50.096;20.082;2023-04-12T02:04:00;6.81;83.10
67641;SHT31;54434;50.096;20.082;2023-04-12T02:06:39;6.81;83.05
67641;SHT31;54434;50.096;20.082;2023-04-12T02:09:17;6.82;82.93
67641;SHT31;54434;50.096;20.082;2023-04-12T02:11:54;6.82;82.87
67641;SHT31;54434;50.096;20.082;2023-04-12T02:14:32;6.82;82.87
67641;SHT31;54434;50.096;20.082;2023-04-12T02:17:08;6.82;82.85
67641;SHT31;54434;50.096;20.082;2023-04-12T02:19:45;6.82;82.98
67641;SHT31;54434;50.096;20.082;2023-04-12T02:22:22;6.80;83.03
67641;SHT31;54434;50.096;20.082;2023-04-12T02:24:58;6.80;83.07
67641;SHT31;54434;50.096;20.082;2023-04-12T02:27:37;6.79;82.99
67641;SHT31;54434;50.096;20.082;2023-04-12T02:30:14;6.79;82.90
67641;SHT31;54434;50.096;20.082;2023-04-12T02:32:54;6.78;82.92
67641;SHT31;54434;50.096;20.082;2023-04-12T02:35:33;6.78;82.90
67641;SHT31;54434;50.096;20.082;2023-04-12T02:38:12;6.80;82.91
67641;SHT31;54434;50.096;20.082;2023-04-12T02:40:48;6.80;82.96
67641;SHT31;54434;50.096;20.082;2023-04-12T02:43:27;6.80;82.91
67641;SHT31;54434;50.096;20.082;2023-04-12T02:46:07;6.81;82.72
67641;SHT31;54434;50.096;20.082;2023-04-12T02:48:49;6.79;82.56
67641;SHT31;54434;50.096;20.082;2023-04-12T02:51:28;6.78;82.35
67641;SHT31;54434;50.096;20.082;2023-04-12T02:54:04;6.76;82.10
67641;SHT31;54434;50.096;20.082;2023-04-12T02:56:51;6.72;81.94
67641;SHT31;54434;50.096;20.082;2023-04-12T02:59:43;6.71;81.92
67641;SHT31;54434;50.096;20.082;2023-04-12T03:02:26;6.71;81.88
67641;SHT31;54434;50.096;20.082;2023-04-12T03:05:06;6.72;81.90
67641;SHT31;54434;50.096;20.082;2023-04-12T03:07:45;6.73;81.93
67641;SHT31;54434;50.096;20.082;2023-04-12T03:10:24;6.74;81.94
67641;SHT31;54434;50.096;20.082;2023-04-12T03:13:06;6.75;81.93
67641;SHT31;54434;50.096;20.082;2023-04-12T03:15:47;6.76;81.85
67641;SHT31;54434;50.096;20.082;2023-04-12T03:18:35;6.77;81.72
67641;SHT31;54434;50.096;20.082;2023-04-12T03:21:13;6.77;81.64
67641;SHT31;54434;50.096;20.082;2023-04-12T03:23:49;6.77;81.62
67641;SHT31;54434;50.096;20.082;2023-04-12T03:26:26;6.77;81.51
67641;SHT31;54434;50.096;20.082;2023-04-12T03:29:07;6.76;81.32
67641;SHT31;54434;50.096;20.082;2023-04-12T03:31:48;6.76;81.22
67641;SHT31;54434;50.096;20.082;2023-04-12T03:34:25;6.77;81.11
67641;SHT31;54434;50.096;20.082;2023-04-12T03:37:05;6.78;81.10
67641;SHT31;54434;50.096;20.082;2023-04-12T03:39:44;6.78;80.97
67641;SHT31;54434;50.096;20.082;2023-04-12T03:42:26;6.77;80.80
67641;SHT31;54434;50.096;20.082;2023-04-12T03:45:23;6.77;80.50
67641;SHT31;54434;50.096;20.082;2023-04-12T03:48:01;6.77;80.40
67641;SHT31;54434;50.096;20.082;2023-04-12T03:50:44;6.79;80.38
67641;SHT31;54434;50.096;20.082;2023-04-12T03:53:25;6.78;80.53
67641;SHT31;54434;50.096;20.082;2023-04-12T03:56:03;6.76;80.60
67641;SHT31;54434;50.096;20.082;2023-04-12T03:58:41;6.77;80.64
67641;SHT31;54434;50.096;20.082;2023-04-12T04:01:17;6.77;80.60
67641;SHT31;54434;50.096;20.082;2023-04-12T04:03:54;6.77;80.58
67641;SHT31;54434;50.096;20.082;2023-04-12T04:06:34;6.78;80.61
67641;SHT31;54434;50.096;20.082;2023-04-12T04:09:12;6.76;80.59
67641;SHT31;54434;50.096;20.082;2023-04-12T04:11:53;6.76;80.60
67641;SHT31;54434;50.096;20.082;2023-04-12T04:14:35;6.76;80.75
67641;SHT31;54434;50.096;20.082;2023-04-12T04:17:15;6.75;80.87
67641;SHT31;54434;50.096;20.082;2023-04-12T04:19:52;6.74;80.87
67641;SHT31;54434;50.096;20.082;2023-04-12T04:22:28;6.74;80.98
67641;SHT31;54434;50.096;20.082;2023-04-12T04:25:07;6.75;81.02
67641;SHT31;54434;50.096;20.082;2023-04-12T04:27:46;6.74;81.04
67641;SHT31;54434;50.096;20.082;2023-04-12T04:30:23;6.72;81.14
67641;SHT31;54434;50.096;20.082;2023-04-12T04:32:59;6.71;81.17
67641;SHT31;54434;50.096;20.082;2023-04-12T04:35:40;6.69;81.24
67641;SHT31;54434;50.096;20.082;2023-04-12T04:38:29;6.68;81.33
67641;SHT31;54434;50.096;20.082;2023-04-12T04:41:11;6.65;81.37
67641;SHT31;54434;50.096;20.082;2023-04-12T04:43:53;6.66;81.49
67641;SHT31;54434;50.096;20.082;2023-04-12T04:46:33;6.66;81.47
67641;SHT31;54434;50.096;20.082;2023-04-12T04:49:10;6.66;81.31
67641;SHT31;54434;50.096;20.082;2023-04-12T04:51:46;6.69;81.34
67641;SHT31;54434;50.096;20.082;2023-04-12T04:54:23;6.70;81.41
67641;SHT31;54434;50.096;20.082;2023-04-12T04:57:00;6.72;81.40
67641;SHT31;54434;50.096;20.082;2023-04-12T04:59:39;6.73;81.36
67641;SHT31;54434;50.096;20.082;2023-04-12T05:02:20;6.73;81.25
67641;SHT31;54434;50.096;20.082;2023-04-12T05:04:57;6.73;81.20
67641;SHT31;54434;50.096;20.082;2023-04-12T05:07:35;6.72;81.10
67641;SHT31;54434;50.096;20.082;2023-04-12T05:10:12;6.72;81.07
67641;SHT31;54434;50.096;20.082;2023-04-12T05:12:49;6.72;81.04
67641;SHT31;54434;50.096;20.082;2023-04-12T05:15:28;6.72;81.14
67641;SHT31;54434;50.096;20.082;2023-04-12T05:18:05;6.70;81.12
67641;SHT31;54434;50.096;20.082;2023-04-12T05:20:42;6.71;81.10
67641;SHT31;54434;50.096;20.082;2023-04-12T05:23:19;6.73;81.24
67641;SHT31;54434;50.096;20.082;2023-04-12T05:25:58;6.72;81.16
67641;SHT31;54434;50.096;20.082;2023-04-12T05:28:35;6.72;81.19
67641;SHT31;54434;50.096;20.082;2023-04-12T05:31:12;6.72;81.25
67641;SHT31;54434;50.096;20.082;2023-04-12T05:33:50;6.72;81.38
67641;SHT31;54434;50.096;20.082;2023-04-12T05:36:30;6.74;81.52
67641;SHT31;54434;50.096;20.082;2023-04-12T05:39:07;6.76;81.56
67641;SHT31;54434;50.096;20.082;2023-04-12T05:41:43;6.78;81.39
67641;SHT31;54434;50.096;20.082;2023-04-12T05:44:20;6.79;81.31
67641;SHT31;54434;50.096;20.082;2023-04-12T05:46:56;6.79;81.33
67641;SHT31;54434;50.096;20.082;2023-04-12T05:49:33;6.83;81.47
67641;SHT31;54434;50.096;20.082;2023-04-12T05:52:11;6.88;81.48
67641;SHT31;54434;50.096;20.082;2023-04-12T05:54:48;6.91;81.51
67641;SHT31;54434;50.096;20.082;2023-04-12T05:57:26;6.92;81.43
67641;SHT31;54434;50.096;20.082;2023-04-12T06:00:03;6.92;81.48
67641;SHT31;54434;50.096;20.082;2023-04-12T06:02:47;6.92;81.39
67641;SHT31;54434;50.096;20.082;2023-04-12T06:05:24;6.92;81.36
67641;SHT31;54434;50.096;20.082;2023-04-12T06:08:01;6.96;81.28
67641;SHT31;54434;50.096;20.082;2023-04-12T06:10:39;7.02;81.26
67641;SHT31;54434;50.096;20.082;2023-04-12T06:13:16;7.06;81.20
67641;SHT31;54434;50.096;20.082;2023-04-12T06:15:54;7.07;80.69
67641;SHT31;54434;50.096;20.082;2023-04-12T06:18:31;7.07;80.51
67641;SHT31;54434;50.096;20.082;2023-04-12T06:21:09;7.09;80.42
67641;SHT31;54434;50.096;20.082;2023-04-12T06:23:47;7.11;80.29
67641;SHT31;54434;50.096;20.082;2023-04-12T06:26:23;7.12;80.20
67641;SHT31;54434;50.096;20.082;2023-04-12T06:29:10;7.13;79.88
67641;SHT31;54434;50.096;20.082;2023-04-12T06:31:49;7.18;79.89
67641;SHT31;54434;50.096;20.082;2023-04-12T06:34:26;7.22;79.75
67641;SHT31;54434;50.096;20.082;2023-04-12T06:37:08;7.28;79.85
67641;SHT31;54434;50.096;20.082;2023-04-12T06:39:45;7.31;79.39
67641;SHT31;54434;50.096;20.082;2023-04-12T06:42:21;7.34;79.25
67641;SHT31;54434;50.096;20.082;2023-04-12T06:44:59;7.42;79.32
67641;SHT31;54434;50.096;20.082;2023-04-12T06:47:36;7.49;79.27
67641;SHT31;54434;50.096;20.082;2023-04-12T06:50:14;7.54;78.87
67641;SHT31;54434;50.096;20.082;2023-04-12T06:52:50;7.62;78.76
67641;SHT31;54434;50.096;20.082;2023-04-12T06:55:27;7.71;78.81
67641;SHT31;54434;50.096;20.082;2023-04-12T06:58:04;7.78;78.35
67641;SHT31;54434;50.096;20.082;2023-04-12T07:00:40;7.83;78.32
67641;SHT31;54434;50.096;20.082;2023-04-12T07:03:17;7.91;77.88
67641;SHT31;54434;50.096;20.082;2023-04-12T07:05:57;7.99;77.89
67641;SHT31;54434;50.096;20.082;2023-04-12T07:08:54;8.10;77.55
67641;SHT31;54434;50.096;20.082;2023-04-12T07:11:31;8.20;77.50
67641;SHT31;54434;50.096;20.082;2023-04-12T07:14:08;8.35;77.62
67641;SHT31;54434;50.096;20.082;2023-04-12T07:16:45;8.48;77.13
67641;SHT31;54434;50.096;20.082;2023-04-12T07:19:21;8.52;76.23
67641;SHT31;54434;50.096;20.082;2023-04-12T07:22:00;8.59;76.34
67641;SHT31;54434;50.096;20.082;2023-04-12T07:24:37;8.69;76.16
67641;SHT31;54434;50.096;20.082;2023-04-12T07:27:13;8.82;75.92
67641;SHT31;54434;50.096;20.082;2023-04-12T07:29:51;8.91;75.62
67641;SHT31;54434;50.096;20.082;2023-04-12T07:32:29;8.98;75.55
67641;SHT31;54434;50.096;20.082;2023-04-12T07:35:08;9.00;75.43
67641;SHT31;54434;50.096;20.082;2023-04-12T07:37:45;8.99;74.77
67641;SHT31;54434;50.096;20.082;2023-04-12T07:40:22;8.93;74.70
67641;SHT31;54434;50.096;20.082;2023-04-12T07:43:00;8.92;74.67
67641;SHT31;54434;50.096;20.082;2023-04-12T07:45:38;8.92;74.84
67641;SHT31;54434;50.096;20.082;2023-04-12T07:48:14;8.92;74.70
67641;SHT31;54434;50.096;20.082;2023-04-12T07:50:51;8.90;74.20
67641;SHT31;54434;50.096;20.082;2023-04-12T07:53:28;8.89;74.26
67641;SHT31;54434;50.096;20.082;2023-04-12T07:56:05;8.92;74.60
67641;SHT31;54434;50.096;20.082;2023-04-12T07:58:42;8.95;74.31
67641;SHT31;54434;50.096;20.082;2023-04-12T08:01:19;8.95;73.83
67641;SHT31;54434;50.096;20.082;2023-04-12T08:03:56;8.98;73.65
67641;SHT31;54434;50.096;20.082;2023-04-12T08:06:33;9.01;73.19
67641;SHT31;54434;50.096;20.082;2023-04-12T08:09:10;9.06;73.04
67641;SHT31;54434;50.096;20.082;2023-04-12T08:11:46;9.17;73.36
67641;SHT31;54434;50.096;20.082;2023-04-12T08:14:23;9.26;73.21
67641;SHT31;54434;50.096;20.082;2023-04-12T08:17:00;9.34;73.20
67641;SHT31;54434;50.096;20.082;2023-04-12T08:19:36;9.38;72.66
67641;SHT31;54434;50.096;20.082;2023-04-12T08:22:13;9.37;72.29
67641;SHT31;54434;50.096;20.082;2023-04-12T08:24:50;9.32;72.27
67641;SHT31;54434;50.096;20.082;2023-04-12T08:27:27;9.33;72.08
67641;SHT31;54434;50.096;20.082;2023-04-12T08:30:05;9.39;72.20
67641;SHT31;54434;50.096;20.082;2023-04-12T08:32:44;9.48;71.93
67641;SHT31;54434;50.096;20.082;2023-04-12T08:35:21;9.60;72.03
67641;SHT31;54434;50.096;20.082;2023-04-12T08:37:58;9.79;71.50
67641;SHT31;54434;50.096;20.082;2023-04-12T08:40:38;9.96;71.19
67641;SHT31;54434;50.096;20.082;2023-04-12T08:43:18;10.09;70.76
67641;SHT31;54434;50.096;20.082;2023-04-12T08:46:00;10.22;70.81
67641;SHT31;54434;50.096;20.082;2023-04-12T08:48:35;10.35;70.28
67641;SHT31;54434;50.096;20.082;2023-04-12T08:51:16;10.41;69.56
67641;SHT31;54434;50.096;20.082;2023-04-12T08:53:53;10.46;69.47
67641;SHT31;54434;50.096;20.082;2023-04-12T08:56:31;10.45;69.32
67641;SHT31;54434;50.096;20.082;2023-04-12T08:59:08;10.51;69.32
67641;SHT31;54434;50.096;20.082;2023-04-12T09:01:46;10.64;68.68
67641;SHT31;54434;50.096;20.082;2023-04-12T09:04:24;10.80;68.83
67641;SHT31;54434;50.096;20.082;2023-04-12T09:07:02;10.97;68.25
67641;SHT31;54434;50.096;20.082;2023-04-12T09:09:45;11.23;67.03
67641;SHT31;54434;50.096;20.082;2023-04-12T09:12:23;11.45;65.79
67641;SHT31;54434;50.096;20.082;2023-04-12T09:15:10;11.73;66.22
67641;SHT31;54434;50.096;20.082;2023-04-12T09:17:49;11.95;66.08
67641;SHT31;54434;50.096;20.082;2023-04-12T09:20:40;12.21;65.53
67641;SHT31;54434;50.096;20.082;2023-04-12T09:23:21;12.38;65.03
67641;SHT31;54434;50.096;20.082;2023-04-12T09:25:58;12.47;64.16
67641;SHT31;54434;50.096;20.082;2023-04-12T09:28:35;12.78;64.88
67641;SHT31;54434;50.096;20.082;2023-04-12T09:31:18;13.37;64.25
67641;SHT31;54434;50.096;20.082;2023-04-12T09:33:56;13.86;63.11
67641;SHT31;54434;50.096;20.082;2023-04-12T09:36:42;14.16;61.24
67641;SHT31;54434;50.096;20.082;2023-04-12T09:39:18;14.19;60.75
67641;SHT31;54434;50.096;20.082;2023-04-12T09:42:09;14.12;59.42
67641;SHT31;54434;50.096;20.082;2023-04-12T09:45:20;14.03;59.35
67641;SHT31;54434;50.096;20.082;2023-04-12T09:47:59;13.91;58.92
67641;SHT31;54434;50.096;20.082;2023-04-12T09:50:35;13.88;59.20
67641;SHT31;54434;50.096;20.082;2023-04-12T09:53:16;13.79;59.10
67641;SHT31;54434;50.096;20.082;2023-04-12T09:55:53;13.70;59.66
67641;SHT31;54434;50.096;20.082;2023-04-12T09:58:33;13.54;58.14
67641;SHT31;54434;50.096;20.082;2023-04-12T10:01:13;13.25;58.33
67641;SHT31;54434;50.096;20.082;2023-04-12T10:03:50;12.97;58.39
67641;SHT31;54434;50.096;20.082;2023-04-12T10:06:29;12.76;58.91
67641;SHT31;54434;50.096;20.082;2023-04-12T10:09:07;12.61;59.70
67641;SHT31;54434;50.096;20.082;2023-04-12T10:11:44;12.67;60.34
67641;SHT31;54434;50.096;20.082;2023-04-12T10:14:23;12.88;60.71
67641;SHT31;54434;50.096;20.082;2023-04-12T10:17:04;13.11;60.07
67641;SHT31;54434;50.096;20.082;2023-04-12T10:19:42;13.22;58.89
67641;SHT31;54434;50.096;20.082;2023-04-12T10:22:20;13.45;59.69
67641;SHT31;54434;50.096;20.082;2023-04-12T10:24:58;13.56;59.50
67641;SHT31;54434;50.096;20.082;2023-04-12T10:27:34;13.62;58.69
67641;SHT31;54434;50.096;20.082;2023-04-12T10:30:25;13.54;57.44
67641;SHT31;54434;50.096;20.082;2023-04-12T10:33:14;13.39;58.26
67641;SHT31;54434;50.096;20.082;2023-04-12T10:35:57;13.24;57.46
67641;SHT31;54434;50.096;20.082;2023-04-12T10:38:46;12.89;57.22
67641;SHT31;54434;50.096;20.082;2023-04-12T10:41:47;12.61;58.36
67641;SHT31;54434;50.096;20.082;2023-04-12T10:45:36;12.48;59.27
67641;SHT31;54434;50.096;20.082;2023-04-12T10:48:31;12.47;59.70
67641;SHT31;54434;50.096;20.082;2023-04-12T10:51:18;12.46;60.37
67641;SHT31;54434;50.096;20.082;2023-04-12T10:54:33;12.44;59.90
67641;SHT31;54434;50.096;20.082;2023-04-12T10:57:41;12.35;59.83
67641;SHT31;54434;50.096;20.082;2023-04-12T11:00:22;12.42;60.27
67641;SHT31;54434;50.096;20.082;2023-04-12T11:03:27;12.51;59.47
67641;SHT31;54434;50.096;20.082;2023-04-12T11:06:05;12.55;58.86
67641;SHT31;54434;50.096;20.082;2023-04-12T11:09:20;12.60;58.91
67641;SHT31;54434;50.096;20.082;2023-04-12T11:12:09;12.58;59.38
67641;SHT31;54434;50.096;20.082;2023-04-12T11:14:49;12.68;60.00
67641;SHT31;54434;50.096;20.082;2023-04-12T11:17:39;12.71;59.22
67641;SHT31;54434;50.096;20.082;2023-04-12T11:20:25;12.82;59.27
67641;SHT31;54434;50.096;20.082;2023-04-12T11:23:05;12.95;59.24
67641;SHT31;54434;50.096;20.082;2023-04-12T11:25:43;13.05;57.91
67641;SHT31;54434;50.096;20.082;2023-04-12T11:28:25;13.12;57.61
67641;SHT31;54434;50.096;20.082;2023-04-12T11:31:06;13.12;56.53
67641;SHT31;54434;50.096;20.082;2023-04-12T11:33:43;13.08;56.45
67641;SHT31;54434;50.096;20.082;2023-04-12T11:36:19;13.06;56.28
67641;SHT31;54434;50.096;20.082;2023-04-12T11:38:57;13.08;56.67
67641;SHT31;54434;50.096;20.082;2023-04-12T11:41:34;13.24;57.26
67641;SHT31;54434;50.096;20.082;2023-04-12T11:44:15;13.32;57.39
67641;SHT31;54434;50.096;20.082;2023-04-12T11:46:53;13.36;57.25
67641;SHT31;54434;50.096;20.082;2023-04-12T11:49:32;13.43;57.30
67641;SHT31;54434;50.096;20.082;2023-04-12T11:52:08;13.48;57.89
67641;SHT31;54434;50.096;20.082;2023-04-12T11:54:47;13.55;57.18
67641;SHT31;54434;50.096;20.082;2023-04-12T11:57:27;13.57;56.68
67641;SHT31;54434;50.096;20.082;2023-04-12T12:00:05;13.55;57.06
67641;SHT31;54434;50.096;20.082;2023-04-12T12:02:46;13.57;56.42
67641;SHT31;54434;50.096;20.082;2023-04-12T12:05:39;13.56;56.37
67641;SHT31;54434;50.096;20.082;2023-04-12T12:08:17;13.50;54.95
67641;SHT31;54434;50.096;20.082;2023-04-12T12:10:55;13.40;55.42
67641;SHT31;54434;50.096;20.082;2023-04-12T12:13:46;13.32;55.17
67641;SHT31;54434;50.096;20.082;2023-04-12T12:16:26;13.25;55.90
67641;SHT31;54434;50.096;20.082;2023-04-12T12:19:05;13.23;55.51
67641;SHT31;54434;50.096;20.082;2023-04-12T12:21:41;13.25;56.20
67641;SHT31;54434;50.096;20.082;2023-04-12T12:24:18;13.24;55.51
67641;SHT31;54434;50.096;20.082;2023-04-12T12:26:59;13.31;56.94
67641;SHT31;54434;50.096;20.082;2023-04-12T12:29:37;13.34;56.12
67641;SHT31;54434;50.096;20.082;2023-04-12T12:32:15;13.35;55.87
67641;SHT31;54434;50.096;20.082;2023-04-12T12:34:55;13.33;56.01
67641;SHT31;54434;50.096;20.082;2023-04-12T12:37:32;13.31;55.02
67641;SHT31;54434;50.096;20.082;2023-04-12T12:40:11;13.25;55.36
67641;SHT31;54434;50.096;20.082;2023-04-12T12:42:49;13.24;55.19
67641;SHT31;54434;50.096;20.082;2023-04-12T12:45:28;13.25;54.73
67641;SHT31;54434;50.096;20.082;2023-04-12T12:48:07;13.22;54.77
67641;SHT31;54434;50.096;20.082;2023-04-12T12:50:44;13.24;54.63
67641;SHT31;54434;50.096;20.082;2023-04-12T12:53:21;13.29;54.43
67641;SHT31;54434;50.096;20.082;2023-04-12T12:56:01;13.28;54.02
67641;SHT31;54434;50.096;20.082;2023-04-12T12:58:39;13.29;54.13
67641;SHT31;54434;50.096;20.082;2023-04-12T13:01:16;13.27;54.19
67641;SHT31;54434;50.096;20.082;2023-04-12T13:03:52;13.28;54.26
67641;SHT31;54434;50.096;20.082;2023-04-12T13:06:30;13.27;53.87
67641;SHT31;54434;50.096;20.082;2023-04-12T13:09:06;13.31;54.10
67641;SHT31;54434;50.096;20.082;2023-04-12T13:11:43;13.35;54.30
67641;SHT31;54434;50.096;20.082;2023-04-12T13:14:19;13.40;55.12
67641;SHT31;54434;50.096;20.082;2023-04-12T13:16:56;13.38;56.15
67641;SHT31;54434;50.096;20.082;2023-04-12T13:19:32;13.36;55.75
67641;SHT31;54434;50.096;20.082;2023-04-12T13:22:09;13.36;55.61
67641;SHT31;54434;50.096;20.082;2023-04-12T13:24:46;13.34;55.81
67641;SHT31;54434;50.096;20.082;2023-04-12T13:27:23;13.28;55.89
67641;SHT31;54434;50.096;20.082;2023-04-12T13:30:00;13.23;55.53
67641;SHT31;54434;50.096;20.082;2023-04-12T13:32:37;13.15;56.03
67641;SHT31;54434;50.096;20.082;2023-04-12T13:35:15;13.03;55.49
67641;SHT31;54434;50.096;20.082;2023-04-12T13:37:52;12.95;56.29
67641;SHT31;54434;50.096;20.082;2023-04-12T13:40:28;12.93;55.93
67641;SHT31;54434;50.096;20.082;2023-04-12T13:43:05;12.89;56.12
67641;SHT31;54434;50.096;20.082;2023-04-12T13:45:42;12.85;57.11
67641;SHT31;54434;50.096;20.082;2023-04-12T13:48:18;12.79;57.46
67641;SHT31;54434;50.096;20.082;2023-04-12T13:50:55;12.71;57.47
67641;SHT31;54434;50.096;20.082;2023-04-12T13:53:32;12.58;57.62
67641;SHT31;54434;50.096;20.082;2023-04-12T13:56:09;12.49;57.91
67641;SHT31;54434;50.096;20.082;2023-04-12T13:58:47;12.45;58.20
67641;SHT31;54434;50.096;20.082;2023-04-12T14:01:24;12.44;58.56
67641;SHT31;54434;50.096;20.082;2023-04-12T14:04:01;12.43;58.41
67641;SHT31;54434;50.096;20.082;2023-04-12T14:06:38;12.43;58.35
67641;SHT31;54434;50.096;20.082;2023-04-12T14:09:25;12.41;58.72
67641;SHT31;54434;50.096;20.082;2023-04-12T14:12:04;12.35;58.94
67641;SHT31;54434;50.096;20.082;2023-04-12T14:14:41;12.30;58.64
67641;SHT31;54434;50.096;20.082;2023-04-12T14:17:18;12.24;58.67
67641;SHT31;54434;50.096;20.082;2023-04-12T14:19:55;12.17;58.65
67641;SHT31;54434;50.096;20.082;2023-04-12T14:22:32;12.12;58.68
67641;SHT31;54434;50.096;20.082;2023-04-12T14:25:10;12.04;58.82
67641;SHT31;54434;50.096;20.082;2023-04-12T14:27:47;11.98;59.18
67641;SHT31;54434;50.096;20.082;2023-04-12T14:30:24;11.94;59.45
67641;SHT31;54434;50.096;20.082;2023-04-12T14:33:01;11.90;59.83
67641;SHT31;54434;50.096;20.082;2023-04-12T14:35:38;11.91;59.33
67641;SHT31;54434;50.096;20.082;2023-04-12T14:38:15;11.93;59.61
67641;SHT31;54434;50.096;20.082;2023-04-12T14:40:53;11.86;59.88
67641;SHT31;54434;50.096;20.082;2023-04-12T14:43:30;11.80;59.77
67641;SHT31;54434;50.096;20.082;2023-04-12T14:46:07;11.75;60.07
67641;SHT31;54434;50.096;20.082;2023-04-12T14:48:45;11.77;60.44
67641;SHT31;54434;50.096;20.082;2023-04-12T14:51:22;11.77;60.30
67641;SHT31;54434;50.096;20.082;2023-04-12T14:54:00;11.79;60.46
67641;SHT31;54434;50.096;20.082;2023-04-12T14:56:39;11.80;60.06
67641;SHT31;54434;50.096;20.082;2023-04-12T14:59:25;11.80;59.78
67641;SHT31;54434;50.096;20.082;2023-04-12T15:02:02;11.79;59.83
67641;SHT31;54434;50.096;20.082;2023-04-12T15:04:39;11.82;59.94
67641;SHT31;54434;50.096;20.082;2023-04-12T15:07:15;11.83;60.39
67641;SHT31;54434;50.096;20.082;2023-04-12T15:09:52;11.85;60.76
67641;SHT31;54434;50.096;20.082;2023-04-12T15:12:29;11.89;60.50
67641;SHT31;54434;50.096;20.082;2023-04-12T15:15:07;11.88;60.17
67641;SHT31;54434;50.096;20.082;2023-04-12T15:17:45;11.90;60.36
67641;SHT31;54434;50.096;20.082;2023-04-12T15:20:22;11.95;60.47
67641;SHT31;54434;50.096;20.082;2023-04-12T15:22:59;11.96;60.66
67641;SHT31;54434;50.096;20.082;2023-04-12T15:25:37;11.98;60.46
67641;SHT31;54434;50.096;20.082;2023-04-12T15:28:14;12.01;59.86
67641;SHT31;54434;50.096;20.082;2023-04-12T15:30:50;12.01;59.46
67641;SHT31;54434;50.096;20.082;2023-04-12T15:33:28;12.00;59.48
67641;SHT31;54434;50.096;20.082;2023-04-12T15:36:07;12.03;59.54
67641;SHT31;54434;50.096;20.082;2023-04-12T15:38:47;12.06;59.70
67641;SHT31;54434;50.096;20.082;2023-04-12T15:41:25;12.15;59.89
67641;SHT31;54434;50.096;20.082;2023-04-12T15:44:09;12.19;59.08
67641;SHT31;54434;50.096;20.082;2023-04-12T15:46:46;12.16;58.65
67641;SHT31;54434;50.096;20.082;2023-04-12T15:49:41;12.11;58.95
67641;SHT31;54434;50.096;20.082;2023-04-12T15:52:18;12.08;58.91
67641;SHT31;54434;50.096;20.082;2023-04-12T15:54:55;12.01;59.15
67641;SHT31;54434;50.096;20.082;2023-04-12T15:57:31;11.93;59.45
67641;SHT31;54434;50.096;20.082;2023-04-12T16:00:10;11.82;60.21
67641;SHT31;54434;50.096;20.082;2023-04-12T16:02:55;11.74;60.17
67641;SHT31;54434;50.096;20.082;2023-04-12T16:05:38;11.66;60.14
67641;SHT31;54434;50.096;20.082;2023-04-12T16:08:15;11.59;60.36
67641;SHT31;54434;50.096;20.082;2023-04-12T16:10:53;11.49;60.97
67641;SHT31;54434;50.096;20.082;2023-04-12T16:13:30;11.40;60.69
67641;SHT31;54434;50.096;20.082;2023-04-12T16:16:07;11.33;60.73
67641;SHT31;54434;50.096;20.082;2023-04-12T16:18:46;11.27;61.23
67641;SHT31;54434;50.096;20.082;2023-04-12T16:21:24;11.20;61.57
67641;SHT31;54434;50.096;20.082;2023-04-12T16:24:02;11.09;61.67
67641;SHT31;54434;50.096;20.082;2023-04-12T16:26:42;11.00;61.75
67641;SHT31;54434;50.096;20.082;2023-04-12T16:29:20;10.94;62.03
67641;SHT31;54434;50.096;20.082;2023-04-12T16:31:56;10.87;62.01
67641;SHT31;54434;50.096;20.082;2023-04-12T16:34:33;10.82;62.46
67641;SHT31;54434;50.096;20.082;2023-04-12T16:37:12;10.77;62.65
67641;SHT31;54434;50.096;20.082;2023-04-12T16:39:48;10.73;63.12
67641;SHT31;54434;50.096;20.082;2023-04-12T16:42:25;10.67;63.25